createdAt,value
2023-04-27T00:02:02.813Z,4.82
2023-04-27T00:04:34.594Z,5.10
2023-04-27T00:07:03.694Z,5.38
2023-04-27T00:09:30.294Z,4.95
2023-04-27T00:11:56.852Z,5.55
2023-04-27T00:14:26.652Z,5.50
2023-04-27T00:16:53.321Z,5.38
2023-04-27T00:19:19.911Z,5.95
2023-04-27T00:21:46.519Z,5.68
2023-04-27T00:24:16.035Z,5.30
2023-04-27T00:26:44.965Z,5.07
2023-04-27T00:29:16.422Z,4.88
2023-04-27T00:31:45.194Z,4.53
2023-04-27T00:34:14.678Z,4.50
2023-04-27T00:36:47.385Z,5.00
2023-04-27T00:39:14.227Z,5.13
2023-04-27T00:41:45.090Z,4.55
2023-04-27T00:44:11.736Z,5.30
2023-04-27T00:46:43.762Z,5.28
2023-04-27T00:49:13.527Z,4.90
2023-04-27T00:51:40.693Z,4.53
2023-04-27T00:54:07.678Z,4.72
2023-04-27T00:56:39.050Z,4.72
2023-04-27T00:59:05.607Z,4.68
2023-04-27T01:01:32.426Z,4.45
2023-04-27T01:04:00.323Z,4.65
2023-04-27T01:06:29.592Z,4.00
2023-04-27T01:08:56.309Z,3.83
2023-04-27T01:11:25.255Z,4.55
2023-04-27T01:13:55.846Z,4.13
2023-04-27T01:16:24.546Z,4.45
2023-04-27T01:18:51.134Z,3.78
2023-04-27T01:21:17.729Z,4.53
2023-04-27T01:23:52.067Z,4.40
2023-04-27T01:26:18.771Z,4.20
2023-04-27T01:28:50.701Z,4.28
2023-04-27T01:31:24.594Z,4.60
2023-04-27T01:33:51.242Z,4.40
2023-04-27T01:36:17.819Z,3.92
2023-04-27T01:38:44.765Z,4.63
2023-04-27T01:41:17.341Z,4.35
2023-04-27T01:43:46.075Z,4.10
2023-04-27T01:46:16.832Z,3.95
2023-04-27T01:48:46.389Z,4.53
2023-04-27T01:51:15.889Z,3.65
2023-04-27T01:53:44.729Z,4.85
2023-04-27T01:56:13.509Z,4.30
2023-04-27T01:58:42.311Z,4.13
2023-04-27T02:01:11.212Z,3.83
2023-04-27T02:03:39.860Z,4.00
2023-04-27T02:06:06.806Z,4.05
2023-04-27T02:08:36.089Z,4.10
2023-04-27T02:11:06.097Z,3.70
2023-04-27T02:13:40.345Z,3.53
2023-04-27T02:16:09.797Z,3.55
2023-04-27T02:18:36.458Z,4.00
2023-04-27T02:21:08.579Z,3.85
2023-04-27T02:23:36.756Z,3.70
2023-04-27T02:26:03.586Z,4.13
2023-04-27T02:28:30.891Z,4.00
2023-04-27T02:30:59.553Z,4.13
2023-04-27T02:33:26.779Z,4.40
2023-04-27T02:35:57.225Z,4.03
2023-04-27T02:38:23.849Z,4.20
2023-04-27T02:40:56.717Z,3.78
2023-04-27T02:43:27.855Z,3.72
2023-04-27T02:45:56.540Z,4.28
2023-04-27T02:48:23.127Z,3.88
2023-04-27T02:50:49.791Z,3.90
2023-04-27T02:53:16.450Z,4.20
2023-04-27T02:55:51.907Z,4.20
2023-04-27T02:58:27.085Z,4.13
2023-04-27T03:00:59.545Z,3.83
2023-04-27T03:03:32.835Z,3.95
2023-04-27T03:06:01.745Z,4.82
2023-04-27T03:08:31.349Z,4.07
2023-04-27T03:11:03.932Z,4.50
2023-04-27T03:13:30.563Z,3.85
2023-04-27T03:15:57.330Z,3.92
2023-04-27T03:18:30.837Z,4.22
2023-04-27T03:21:08.910Z,4.40
2023-04-27T03:23:45.063Z,4.72
2023-04-27T03:26:13.751Z,4.40
2023-04-27T03:28:44.965Z,4.68
2023-04-27T03:31:14.191Z,4.15
2023-04-27T03:33:43.845Z,4.07
2023-04-27T03:36:13.241Z,3.83
2023-04-27T03:38:41.732Z,4.20
2023-04-27T03:41:11.420Z,4.63
2023-04-27T03:43:40.099Z,4.30
2023-04-27T03:46:09.107Z,3.75
2023-04-27T03:48:38.532Z,4.47
2023-04-27T03:51:08.213Z,4.00
2023-04-27T03:53:42.401Z,3.92
2023-04-27T03:56:09.127Z,3.90
2023-04-27T03:58:36.319Z,3.90
2023-04-27T04:01:12.196Z,4.15
2023-04-27T04:03:43.632Z,4.60
2023-04-27T04:06:11.892Z,4.15
2023-04-27T04:08:39.195Z,3.78
2023-04-27T04:11:05.835Z,4.93
2023-04-27T04:13:39.175Z,4.28
2023-04-27T04:16:10.300Z,4.15
2023-04-27T04:18:43.831Z,4.00
2023-04-27T04:21:12.368Z,4.10
2023-04-27T04:23:41.334Z,3.80
2023-04-27T04:26:27.164Z,4.20
2023-04-27T04:28:54.741Z,3.70
2023-04-27T04:31:25.078Z,3.80
2023-04-27T04:33:54.581Z,4.05
2023-04-27T04:36:21.702Z,4.47
2023-04-27T04:38:52.289Z,4.80
2023-04-27T04:41:19.194Z,4.47
2023-04-27T04:43:48.095Z,4.32
2023-04-27T04:46:19.978Z,4.65
2023-04-27T04:48:47.053Z,4.43
2023-04-27T04:51:13.895Z,4.82
2023-04-27T04:53:40.670Z,4.60
2023-04-27T04:56:12.283Z,5.28
2023-04-27T04:58:39.409Z,5.18
2023-04-27T05:01:06.745Z,4.78
2023-04-27T05:03:34.022Z,5.18
2023-04-27T05:06:00.859Z,5.10
2023-04-27T05:08:27.667Z,5.28
2023-04-27T05:10:54.998Z,5.50
2023-04-27T05:13:22.014Z,5.15
2023-04-27T05:15:48.717Z,5.38
2023-04-27T05:18:15.402Z,5.93
2023-04-27T05:20:42.193Z,5.55
2023-04-27T05:23:08.856Z,5.65
2023-04-27T05:25:41.582Z,6.07
2023-04-27T05:28:09.201Z,6.18
2023-04-27T05:30:36.399Z,6.53
2023-04-27T05:33:04.137Z,6.80
2023-04-27T05:35:31.276Z,6.03
2023-04-27T05:37:57.989Z,6.47
2023-04-27T05:40:24.732Z,6.60
2023-04-27T05:42:53.879Z,7.20
2023-04-27T05:45:22.676Z,6.10
2023-04-27T05:47:49.667Z,6.65
2023-04-27T05:50:16.375Z,7.07
2023-04-27T05:52:42.993Z,7.15
2023-04-27T05:55:09.941Z,6.78
2023-04-27T05:57:36.488Z,7.32
2023-04-27T06:00:08.828Z,7.35
2023-04-27T06:02:39.085Z,7.18
2023-04-27T06:05:08.819Z,7.13
2023-04-27T06:07:37.258Z,6.60
2023-04-27T06:10:04.639Z,7.05
2023-04-27T06:12:31.646Z,7.10
2023-04-27T06:14:58.194Z,8.20
2023-04-27T06:17:24.767Z,7.60
2023-04-27T06:19:51.491Z,7.00
2023-04-27T06:22:18.058Z,7.65
2023-04-27T06:24:44.600Z,6.70
2023-04-27T06:27:11.637Z,6.90
2023-04-27T06:29:38.222Z,6.47
2023-04-27T06:32:06.810Z,6.72
2023-04-27T06:34:36.673Z,6.25
2023-04-27T06:37:03.255Z,6.65
2023-04-27T06:39:32.393Z,6.88
2023-04-27T06:41:58.964Z,6.78
2023-04-27T06:44:25.561Z,7.15
2023-04-27T06:46:52.191Z,6.75
2023-04-27T06:49:18.777Z,6.75
2023-04-27T06:51:46.529Z,6.43
2023-04-27T06:54:13.071Z,6.90
2023-04-27T06:56:39.754Z,6.93
2023-04-27T06:59:06.521Z,6.82
2023-04-27T07:01:33.117Z,6.40
2023-04-27T07:03:59.909Z,6.93
2023-04-27T07:06:28.989Z,6.07
2023-04-27T07:08:55.799Z,5.78
2023-04-27T07:11:22.706Z,6.50
2023-04-27T07:13:49.550Z,7.38
2023-04-27T07:16:16.841Z,6.20
2023-04-27T07:18:43.897Z,6.25
2023-04-27T07:21:11.005Z,6.13
2023-04-27T07:23:43.634Z,6.70
2023-04-27T07:26:10.341Z,6.53
2023-04-27T07:28:36.925Z,6.38
2023-04-27T07:31:06.912Z,6.75
2023-04-27T07:33:34.099Z,5.93
2023-04-27T07:36:02.456Z,6.78
2023-04-27T07:38:30.152Z,6.15
2023-04-27T07:41:00.068Z,6.53
2023-04-27T07:43:26.682Z,6.53
2023-04-27T07:45:54.420Z,6.95
2023-04-27T07:48:23.633Z,6.00
2023-04-27T07:50:50.772Z,6.70
2023-04-27T07:53:17.455Z,5.95
2023-04-27T07:55:44.445Z,6.55
2023-04-27T07:58:11.491Z,5.75
2023-04-27T08:00:38.491Z,5.93
2023-04-27T08:03:05.414Z,6.15
2023-04-27T08:05:32.648Z,6.18
2023-04-27T08:07:59.613Z,6.00
2023-04-27T08:10:26.557Z,5.80
2023-04-27T08:12:53.227Z,5.78
2023-04-27T08:15:20.498Z,6.47
2023-04-27T08:17:47.213Z,6.93
2023-04-27T08:20:16.326Z,6.40
2023-04-27T08:22:43.582Z,6.53
2023-04-27T08:25:10.571Z,6.55
2023-04-27T08:27:38.682Z,6.55
2023-04-27T08:30:05.956Z,5.55
2023-04-27T08:32:32.570Z,7.15
2023-04-27T08:34:59.181Z,7.45
2023-04-27T08:37:25.771Z,6.15
2023-04-27T08:39:52.376Z,6.55
2023-04-27T08:42:19.001Z,6.45
2023-04-27T08:44:45.729Z,6.13
2023-04-27T08:47:12.518Z,5.38
2023-04-27T08:49:41.196Z,6.10
2023-04-27T08:52:13.075Z,5.72
2023-04-27T08:54:39.836Z,5.07
2023-04-27T08:57:14.165Z,5.60
2023-04-27T08:59:41.020Z,6.40
2023-04-27T09:02:21.549Z,5.63
2023-04-27T09:04:48.435Z,5.45
2023-04-27T09:07:17.374Z,4.65
2023-04-27T09:09:46.380Z,5.30
2023-04-27T09:12:20.856Z,5.18
2023-04-27T09:15:03.655Z,5.18
2023-04-27T09:17:31.111Z,5.72
2023-04-27T09:20:12.975Z,5.25
2023-04-27T09:22:44.215Z,4.80
2023-04-27T09:25:22.248Z,5.50
2023-04-27T09:27:48.801Z,4.53
2023-04-27T09:30:15.805Z,5.35
2023-04-27T09:32:53.650Z,4.93
2023-04-27T09:35:32.459Z,6.32
2023-04-27T09:38:00.885Z,4.53
2023-04-27T09:40:30.885Z,4.50
2023-04-27T09:43:01.322Z,5.70
2023-04-27T09:45:28.048Z,5.13
2023-04-27T09:47:54.819Z,4.47
2023-04-27T09:50:24.274Z,4.60
2023-04-27T09:52:51.085Z,4.90
2023-04-27T09:55:27.034Z,4.32
2023-04-27T09:58:06.178Z,3.92
2023-04-27T10:00:41.773Z,3.88
2023-04-27T10:03:30.137Z,4.43
2023-04-27T10:06:22.928Z,3.97
2023-04-27T10:11:19.188Z,4.30
2023-04-27T10:13:54.418Z,5.00
2023-04-27T10:16:22.153Z,3.30
2023-04-27T10:18:56.215Z,4.50
2023-04-27T10:21:23.694Z,4.90
2023-04-27T10:23:51.716Z,4.78
2023-04-27T10:26:26.712Z,4.18
2023-04-27T10:29:08.865Z,4.00
2023-04-27T10:31:36.090Z,4.10
2023-04-27T10:34:10.848Z,4.53
2023-04-27T10:36:38.877Z,4.13
2023-04-27T10:39:27.469Z,4.55
2023-04-27T10:41:59.647Z,4.18
2023-04-27T10:44:28.763Z,4.25
2023-04-27T10:46:57.190Z,4.13
2023-04-27T10:49:23.964Z,4.75
2023-04-27T10:51:51.303Z,4.93
2023-04-27T10:54:18.697Z,4.65
2023-04-27T10:56:47.408Z,4.93
2023-04-27T10:59:14.256Z,3.80
2023-04-27T11:01:45.025Z,3.70
2023-04-27T11:04:11.947Z,3.60
2023-04-27T11:06:43.243Z,4.40
2023-04-27T11:09:10.905Z,4.28
2023-04-27T11:11:37.638Z,4.20
2023-04-27T11:14:04.292Z,4.35
2023-04-27T11:16:33.719Z,3.88
2023-04-27T11:19:06.733Z,4.68
2023-04-27T11:21:33.456Z,4.30
2023-04-27T11:24:07.681Z,4.32
2023-04-27T11:26:35.615Z,3.78
2023-04-27T11:29:09.745Z,4.38
2023-04-27T11:31:48.458Z,4.20
2023-04-27T11:34:27.391Z,4.85
2023-04-27T11:37:18.014Z,4.70
2023-04-27T11:39:45.631Z,4.43
2023-04-27T11:42:25.638Z,4.45
2023-04-27T11:44:54.617Z,4.30
2023-04-27T11:47:22.750Z,4.65
2023-04-27T11:49:51.581Z,5.38
2023-04-27T11:52:18.462Z,4.70
2023-04-27T11:54:53.409Z,4.90
2023-04-27T11:57:27.425Z,5.07
2023-04-27T11:59:54.373Z,4.78
2023-04-27T12:02:22.212Z,5.05
2023-04-27T12:04:51.929Z,4.53
2023-04-27T12:07:19.386Z,4.68
2023-04-27T12:09:46.141Z,5.05
2023-04-27T12:12:14.001Z,5.07
2023-04-27T12:14:41.250Z,5.35
2023-04-27T12:17:07.887Z,5.13
2023-04-27T12:19:34.752Z,4.38
2023-04-27T12:22:04.416Z,5.63
2023-04-27T12:24:31.283Z,5.07
2023-04-27T12:26:58.380Z,4.68
2023-04-27T12:29:25.169Z,4.68
2023-04-27T12:31:51.902Z,4.68
2023-04-27T12:34:18.507Z,5.20
2023-04-27T12:36:45.170Z,5.20
2023-04-27T12:39:17.463Z,5.80
2023-04-27T12:44:12.683Z,4.93
2023-04-27T12:46:40.519Z,4.97
2023-04-27T12:49:08.431Z,5.15
2023-04-27T12:51:35.644Z,4.60
2023-04-27T12:54:07.117Z,5.05
2023-04-27T12:56:34.313Z,5.67
2023-04-27T12:59:01.267Z,5.35
2023-04-27T13:01:31.381Z,5.38
2023-04-27T13:04:03.481Z,4.97
2023-04-27T13:06:31.835Z,5.18
2023-04-27T13:08:59.427Z,6.90
2023-04-27T13:11:26.625Z,5.18
2023-04-27T13:13:54.687Z,5.70
2023-04-27T13:16:22.518Z,6.10
2023-04-27T13:18:51.854Z,5.43
2023-04-27T13:21:18.930Z,4.43
2023-04-27T13:23:45.761Z,4.63
2023-04-27T13:26:12.684Z,4.75
2023-04-27T13:28:40.504Z,4.72
2023-04-27T13:31:07.223Z,4.90
2023-04-27T13:33:41.297Z,5.25
2023-04-27T13:36:11.912Z,4.80
2023-04-27T13:38:38.879Z,5.15
2023-04-27T13:41:06.137Z,4.47
2023-04-27T13:43:33.079Z,4.40
2023-04-27T13:46:01.219Z,4.40
2023-04-27T13:48:29.341Z,4.50
2023-04-27T13:50:56.410Z,3.95
2023-04-27T13:53:26.775Z,4.53
2023-04-27T13:55:54.588Z,4.90
2023-04-27T13:58:22.720Z,4.30
2023-04-27T14:00:52.524Z,5.07
2023-04-27T14:03:19.428Z,4.88
2023-04-27T14:05:53.517Z,4.53
2023-04-27T14:08:33.139Z,4.80
2023-04-27T14:10:59.892Z,4.17
2023-04-27T14:13:28.673Z,4.88
2023-04-27T14:15:55.221Z,5.32
2023-04-27T14:18:29.603Z,5.05
2023-04-27T14:21:00.042Z,5.13
2023-04-27T14:23:31.520Z,4.65
2023-04-27T14:25:59.329Z,5.13
2023-04-27T14:28:28.382Z,5.07
2023-04-27T14:30:55.252Z,4.45
2023-04-27T14:33:23.985Z,5.18
2023-04-27T14:35:52.361Z,4.65
2023-04-27T14:38:23.846Z,3.92
2023-04-27T14:40:52.930Z,5.05
2023-04-27T14:43:19.516Z,5.38
2023-04-27T14:45:52.654Z,4.63
2023-04-27T14:48:23.848Z,4.55
2023-04-27T14:50:50.517Z,4.55
2023-04-27T14:53:17.150Z,5.18
2023-04-27T14:55:45.563Z,4.60
2023-04-27T14:58:15.659Z,5.43
2023-04-27T15:00:44.721Z,5.57
2023-04-27T15:03:11.540Z,4.50
2023-04-27T15:05:38.374Z,5.20
2023-04-27T15:08:08.208Z,4.90
2023-04-27T15:10:37.340Z,4.90
2023-04-27T15:13:03.933Z,5.28
2023-04-27T15:15:30.671Z,4.75
2023-04-27T15:17:58.356Z,5.32
2023-04-27T15:20:25.082Z,5.57
2023-04-27T15:22:51.822Z,5.80
2023-04-27T15:25:18.639Z,4.90
2023-04-27T15:27:45.364Z,5.63
2023-04-27T15:30:14.833Z,5.13
2023-04-27T15:32:41.567Z,6.20
2023-04-27T15:35:08.691Z,5.35
2023-04-27T15:37:36.477Z,5.60
2023-04-27T15:40:04.246Z,5.70
2023-04-27T15:42:30.913Z,5.03
2023-04-27T15:45:00.592Z,5.38
2023-04-27T15:47:27.453Z,6.28
2023-04-27T15:49:57.794Z,5.45
2023-04-27T15:52:26.269Z,5.95
2023-04-27T15:54:52.863Z,6.13
2023-04-27T15:57:19.511Z,5.93
2023-04-27T15:59:46.180Z,5.30
2023-04-27T16:02:13.705Z,6.13
2023-04-27T16:04:40.437Z,5.40
2023-04-27T16:07:07.201Z,6.18
2023-04-27T16:09:33.984Z,5.40
2023-04-27T16:12:02.075Z,5.57
2023-04-27T16:14:28.682Z,6.30
2023-04-27T16:16:59.368Z,5.63
2023-04-27T16:19:33.513Z,5.50
2023-04-27T16:22:01.400Z,5.68
2023-04-27T16:24:30.768Z,5.50
2023-04-27T16:26:59.998Z,5.53
2023-04-27T16:29:26.622Z,5.20
2023-04-27T16:31:59.070Z,5.22
2023-04-27T16:34:28.257Z,5.97
2023-04-27T16:36:55.110Z,5.05
2023-04-27T16:39:21.802Z,5.80
2023-04-27T16:41:50.986Z,5.50
2023-04-27T16:44:17.626Z,5.93
2023-04-27T16:46:44.208Z,6.72
2023-04-27T16:49:11.095Z,5.80
2023-04-27T16:51:37.659Z,5.72
2023-04-27T16:54:04.230Z,5.82
2023-04-27T16:56:33.497Z,5.43
2023-04-27T16:59:01.188Z,6.50
2023-04-27T17:01:29.758Z,6.40
2023-04-27T17:03:58.473Z,5.45
2023-04-27T17:06:28.062Z,5.45
2023-04-27T17:08:56.004Z,5.70
2023-04-27T17:11:26.287Z,6.13
2023-04-27T17:13:53.455Z,5.95
2023-04-27T17:16:20.183Z,6.38
2023-04-27T17:18:49.387Z,6.78
2023-04-27T17:21:21.397Z,7.38
2023-04-27T17:23:55.548Z,6.60
2023-04-27T17:26:22.565Z,6.32
2023-04-27T17:28:51.934Z,5.47
2023-04-27T17:31:21.115Z,6.55
2023-04-27T17:33:52.283Z,5.65
2023-04-27T17:36:21.208Z,6.43
2023-04-27T17:38:52.067Z,6.38
2023-04-27T17:41:23.543Z,5.78
2023-04-27T17:43:50.134Z,5.83
2023-04-27T17:46:18.866Z,6.03
2023-04-27T17:48:45.552Z,6.47
2023-04-27T17:51:13.077Z,6.22
2023-04-27T17:53:42.408Z,6.03
2023-04-27T17:56:11.214Z,6.63
2023-04-27T17:58:41.576Z,6.20
2023-04-27T18:01:11.396Z,6.50
2023-04-27T18:03:47.856Z,6.65
2023-04-27T18:06:19.151Z,6.32
2023-04-27T18:08:49.435Z,6.22
2023-04-27T18:11:19.428Z,6.07
2023-04-27T18:13:48.584Z,6.97
2023-04-27T18:16:19.854Z,5.95
2023-04-27T18:18:50.854Z,5.88
2023-04-27T18:21:19.891Z,6.15
2023-04-27T18:23:46.560Z,5.55
2023-04-27T18:26:13.661Z,5.72
2023-04-27T18:28:41.558Z,5.55
2023-04-27T18:31:17.737Z,6.13
2023-04-27T18:33:47.745Z,6.20
2023-04-27T18:36:16.553Z,5.75
2023-04-27T18:38:47.912Z,6.57
2023-04-27T18:41:17.214Z,5.28
2023-04-27T18:43:45.048Z,5.32
2023-04-27T18:46:14.534Z,5.32
2023-04-27T18:48:44.164Z,6.15
2023-04-27T18:51:19.135Z,6.03
2023-04-27T18:53:51.802Z,5.32
2023-04-27T18:56:23.205Z,5.53
2023-04-27T18:58:51.816Z,5.20
2023-04-27T19:01:23.492Z,5.55
2023-04-27T19:03:53.125Z,4.93
2023-04-27T19:06:21.842Z,5.60
2023-04-27T19:08:48.695Z,5.32
2023-04-27T19:11:15.519Z,5.13
2023-04-27T19:13:43.646Z,5.65
2023-04-27T19:16:10.969Z,4.95
2023-04-27T19:18:40.852Z,4.70
2023-04-27T19:21:09.981Z,5.07
2023-04-27T19:23:37.561Z,5.35
2023-04-27T19:26:12.430Z,4.78
2023-04-27T19:28:40.060Z,4.60
2023-04-27T19:31:08.835Z,4.40
2023-04-27T19:33:46.584Z,4.43
2023-04-27T19:36:15.681Z,4.90
2023-04-27T19:38:42.253Z,4.95
2023-04-27T19:41:13.211Z,4.35
2023-04-27T19:43:43.583Z,5.40
2023-04-27T19:46:10.226Z,4.90
2023-04-27T19:48:36.815Z,4.93
2023-04-27T19:51:07.675Z,5.28
2023-04-27T19:53:36.579Z,4.72
2023-04-27T19:56:05.472Z,5.15
2023-04-27T19:58:34.469Z,5.32
2023-04-27T20:01:03.910Z,4.78
2023-04-27T20:03:30.781Z,5.13
2023-04-27T20:05:57.879Z,4.47
2023-04-27T20:08:24.890Z,6.03
2023-04-27T20:10:51.540Z,5.20
2023-04-27T20:13:18.256Z,5.25
2023-04-27T20:15:47.712Z,5.43
2023-04-27T20:18:17.407Z,5.43
2023-04-27T20:20:46.842Z,5.78
2023-04-27T20:23:16.358Z,4.90
2023-04-27T20:25:42.912Z,5.10
2023-04-27T20:28:18.031Z,5.05
2023-04-27T20:30:46.891Z,5.72
2023-04-27T20:33:16.076Z,4.97
2023-04-27T20:35:46.536Z,4.65
2023-04-27T20:38:13.696Z,5.78
2023-04-27T20:40:43.479Z,4.53
2023-04-27T20:43:11.479Z,4.70
2023-04-27T20:45:39.271Z,5.03
2023-04-27T20:48:13.163Z,5.32
2023-04-27T20:50:47.623Z,6.05
2023-04-27T20:53:14.229Z,5.32
2023-04-27T20:55:41.011Z,4.43
2023-04-27T20:58:07.586Z,5.18
2023-04-27T21:00:36.626Z,5.32
2023-04-27T21:03:05.174Z,5.10
2023-04-27T21:05:32.006Z,5.68
2023-04-27T21:07:58.569Z,4.57
2023-04-27T21:10:25.149Z,6.35
2023-04-27T21:12:56.085Z,5.45
2023-04-27T21:15:25.585Z,5.35
2023-04-27T21:17:52.167Z,4.82
2023-04-27T21:20:21.007Z,5.57
2023-04-27T21:22:51.633Z,5.65
2023-04-27T21:25:23.610Z,4.78
2023-04-27T21:27:50.629Z,4.40
2023-04-27T21:30:19.302Z,5.13
2023-04-27T21:32:49.142Z,4.65
2023-04-27T21:35:20.101Z,5.40
2023-04-27T21:37:48.903Z,4.78
2023-04-27T21:40:19.208Z,4.88
2023-04-27T21:42:49.589Z,4.85
2023-04-27T21:45:17.363Z,5.22
2023-04-27T21:47:44.065Z,4.88
2023-04-27T21:50:10.845Z,5.65
2023-04-27T21:52:42.590Z,5.63
2023-04-27T21:55:11.627Z,4.57
2023-04-27T21:57:38.238Z,4.93
2023-04-27T22:00:13.383Z,5.18
2023-04-27T22:02:49.403Z,4.78
2023-04-27T22:05:18.189Z,5.57
2023-04-27T22:07:45.806Z,4.75
2023-04-27T22:10:12.410Z,4.53
2023-04-27T22:12:42.166Z,4.75
2023-04-27T22:15:14.040Z,4.80
2023-04-27T22:17:40.670Z,4.38
2023-04-27T22:20:12.647Z,5.30
2023-04-27T22:22:40.364Z,5.22
2023-04-27T22:25:13.359Z,5.32
2023-04-27T22:27:45.489Z,4.85
2023-04-27T22:30:17.901Z,4.68
2023-04-27T22:32:47.184Z,5.68
2023-04-27T22:35:25.828Z,5.65
2023-04-27T22:37:56.620Z,5.70
2023-04-27T22:40:28.335Z,5.33
2023-04-27T22:43:00.405Z,5.75
2023-04-27T22:45:29.862Z,5.40
2023-04-27T22:47:59.428Z,6.53
2023-04-27T22:50:28.957Z,6.57
2023-04-27T22:52:58.483Z,5.93
2023-04-27T22:55:25.208Z,5.88
2023-04-27T22:58:06.885Z,5.90
2023-04-27T23:00:34.726Z,5.88
2023-04-27T23:03:06.432Z,5.82
2023-04-27T23:05:41.017Z,6.13
2023-04-27T23:08:10.342Z,6.03
2023-04-27T23:10:38.682Z,6.78
2023-04-27T23:13:05.580Z,6.53
2023-04-27T23:15:34.645Z,6.07
2023-04-27T23:18:08.812Z,7.25
2023-04-27T23:20:37.206Z,6.05
2023-04-27T23:23:08.701Z,7.03
2023-04-27T23:25:35.477Z,6.72
2023-04-27T23:28:02.710Z,5.88
2023-04-27T23:30:36.240Z,6.30
2023-04-27T23:33:07.718Z,6.18
2023-04-27T23:35:39.507Z,6.72
2023-04-27T23:38:08.377Z,7.45
2023-04-27T23:40:39.761Z,7.13
2023-04-27T23:43:08.576Z,6.75
2023-04-27T23:45:37.584Z,6.65
2023-04-27T23:48:04.604Z,6.68
2023-04-27T23:50:31.262Z,6.90
2023-04-27T23:53:05.905Z,6.28
2023-04-27T23:55:35.172Z,6.55
2023-04-27T23:58:01.944Z,6.90
